createdAt,value
2023-03-17T00:01:54.947Z,4.03
2023-03-17T00:04:27.632Z,4.10
2023-03-17T00:06:55.391Z,3.70
2023-03-17T00:09:22.842Z,3.70
2023-03-17T00:11:50.337Z,3.60
2023-03-17T00:14:19.257Z,4.10
2023-03-17T00:16:50.385Z,3.73
2023-03-17T00:19:21.900Z,3.57
2023-03-17T00:21:50.066Z,3.03
2023-03-17T00:24:17.491Z,3.43
2023-03-17T00:26:47.192Z,3.17
2023-03-17T00:29:17.109Z,3.53
2023-03-17T00:31:45.829Z,3.23
2023-03-17T00:34:22.772Z,3.30
2023-03-17T00:36:51.745Z,3.40
2023-03-17T00:39:19.490Z,3.17
2023-03-17T00:44:15.412Z,3.27
2023-03-17T00:46:42.618Z,3.33
2023-03-17T00:49:18.928Z,3.67
2023-03-17T00:51:46.436Z,3.70
2023-03-17T00:54:14.793Z,3.63
2023-03-17T00:56:42.902Z,3.10
2023-03-17T00:59:24.424Z,3.57
2023-03-17T01:01:52.034Z,3.33
2023-03-17T01:04:20.368Z,3.03
2023-03-17T01:06:51.006Z,2.93
2023-03-17T01:09:20.564Z,3.17
2023-03-17T01:11:48.850Z,2.90
2023-03-17T01:14:17.038Z,2.80
2023-03-17T01:16:45.049Z,2.83
2023-03-17T01:19:13.353Z,2.83
2023-03-17T01:21:41.085Z,2.40
2023-03-17T01:24:08.448Z,2.53
2023-03-17T01:26:35.385Z,2.80
2023-03-17T01:29:02.446Z,2.53
2023-03-17T01:31:29.658Z,2.40
2023-03-17T01:33:57.036Z,2.43
2023-03-17T01:36:24.008Z,2.37
2023-03-17T01:38:51.171Z,2.60
2023-03-17T01:41:19.332Z,2.53
2023-03-17T01:43:46.028Z,2.40
2023-03-17T01:46:32.133Z,2.70
2023-03-17T01:49:19.882Z,2.63
2023-03-17T01:52:14.415Z,2.83
2023-03-17T01:55:07.102Z,2.57
2023-03-17T01:57:39.977Z,2.47
2023-03-17T02:00:12.145Z,2.53
2023-03-17T02:02:42.073Z,2.70
2023-03-17T02:05:12.388Z,2.30
2023-03-17T02:07:41.792Z,2.77
2023-03-17T02:10:10.010Z,2.70
2023-03-17T02:12:37.242Z,2.80
2023-03-17T02:15:05.540Z,2.50
2023-03-17T02:17:32.394Z,2.53
2023-03-17T02:20:14.840Z,2.50
2023-03-17T02:22:43.438Z,2.40
2023-03-17T02:25:10.759Z,2.53
2023-03-17T02:27:42.855Z,2.73
2023-03-17T02:30:12.208Z,3.10
2023-03-17T02:32:38.968Z,2.77
2023-03-17T02:35:07.361Z,2.70
2023-03-17T02:37:34.895Z,2.63
2023-03-17T02:40:02.811Z,2.70
2023-03-17T02:42:29.567Z,2.53
2023-03-17T02:44:56.303Z,2.60
2023-03-17T02:47:23.069Z,2.60
2023-03-17T02:49:51.347Z,2.40
2023-03-17T02:52:18.191Z,2.87
2023-03-17T02:54:44.930Z,2.80
2023-03-17T02:57:11.869Z,2.90
2023-03-17T02:59:38.660Z,3.33
2023-03-17T03:02:05.920Z,2.63
2023-03-17T03:04:32.796Z,2.50
2023-03-17T03:06:59.763Z,2.73
2023-03-17T03:09:26.452Z,2.50
2023-03-17T03:11:53.616Z,3.00
2023-03-17T03:14:20.426Z,2.73
2023-03-17T03:16:47.709Z,2.70
2023-03-17T03:19:14.700Z,2.57
2023-03-17T03:21:41.633Z,3.27
2023-03-17T03:24:09.550Z,3.37
2023-03-17T03:26:36.330Z,2.90
2023-03-17T03:29:04.886Z,3.40
2023-03-17T03:31:31.834Z,3.10
2023-03-17T03:33:58.661Z,2.80
2023-03-17T03:36:27.022Z,2.87
2023-03-17T03:38:53.881Z,3.70
2023-03-17T03:41:20.910Z,3.30
2023-03-17T03:43:47.748Z,3.03
2023-03-17T03:46:15.926Z,3.30
2023-03-17T03:48:42.848Z,3.40
2023-03-17T03:51:09.906Z,3.50
2023-03-17T03:53:36.684Z,2.80
2023-03-17T03:56:03.478Z,2.83
2023-03-17T03:58:30.356Z,2.83
2023-03-17T04:00:57.102Z,2.80
2023-03-17T04:03:23.915Z,3.50
2023-03-17T04:05:51.066Z,2.83
2023-03-17T04:08:17.982Z,2.70
2023-03-17T04:10:44.746Z,3.57
2023-03-17T04:13:11.800Z,3.03
2023-03-17T04:15:38.654Z,2.70
2023-03-17T04:18:05.821Z,3.00
2023-03-17T04:20:33.290Z,2.93
2023-03-17T04:23:00.558Z,2.53
2023-03-17T04:25:27.785Z,2.70
2023-03-17T04:27:54.453Z,2.80
2023-03-17T04:30:21.266Z,2.70
2023-03-17T04:32:48.094Z,3.00
2023-03-17T04:35:18.019Z,2.87
2023-03-17T04:37:45.185Z,3.57
2023-03-17T04:40:13.653Z,3.10
2023-03-17T04:42:40.782Z,2.77
2023-03-17T04:45:09.794Z,3.07
2023-03-17T04:47:37.490Z,2.87
2023-03-17T04:50:05.840Z,2.70
2023-03-17T04:52:32.737Z,2.53
2023-03-17T04:54:59.604Z,2.70
2023-03-17T04:57:26.412Z,2.60
2023-03-17T04:59:53.122Z,4.17
2023-03-17T05:02:19.886Z,2.93
2023-03-17T05:04:46.732Z,2.50
2023-03-17T05:07:14.204Z,3.53
2023-03-17T05:09:42.080Z,3.23
2023-03-17T05:12:10.081Z,3.00
2023-03-17T05:14:37.508Z,3.00
2023-03-17T05:17:04.396Z,2.60
2023-03-17T05:19:31.256Z,3.33
2023-03-17T05:21:58.099Z,3.27
2023-03-17T05:24:25.133Z,3.40
2023-03-17T05:26:51.878Z,3.43
2023-03-17T05:29:18.674Z,3.03
2023-03-17T05:31:45.380Z,3.00
2023-03-17T05:34:12.111Z,2.63
2023-03-17T05:36:39.016Z,2.90
2023-03-17T05:39:05.841Z,3.10
2023-03-17T05:41:34.082Z,3.50
2023-03-17T05:44:01.082Z,3.97
2023-03-17T05:46:28.246Z,3.03
2023-03-17T05:48:54.966Z,3.20
2023-03-17T05:51:23.043Z,2.50
2023-03-17T05:53:49.864Z,3.10
2023-03-17T05:56:16.772Z,3.27
2023-03-17T05:58:43.665Z,3.40
2023-03-17T06:01:10.496Z,3.20
2023-03-17T06:03:38.831Z,3.70
2023-03-17T06:06:06.194Z,3.40
2023-03-17T06:08:32.910Z,3.13
2023-03-17T06:10:59.769Z,3.83
2023-03-17T06:13:26.473Z,3.20
2023-03-17T06:15:53.250Z,3.40
2023-03-17T06:18:20.672Z,3.87
2023-03-17T06:20:47.468Z,2.90
2023-03-17T06:23:14.452Z,3.30
2023-03-17T06:25:41.800Z,4.43
2023-03-17T06:28:08.838Z,3.27
2023-03-17T06:30:38.752Z,3.37
2023-03-17T06:33:07.043Z,3.77
2023-03-17T06:35:34.663Z,3.60
2023-03-17T06:38:02.616Z,3.00
2023-03-17T06:40:29.934Z,2.70
2023-03-17T06:42:56.790Z,2.77
2023-03-17T06:45:23.612Z,2.83
2023-03-17T06:47:50.354Z,3.90
2023-03-17T06:50:17.622Z,3.23
2023-03-17T06:52:46.628Z,4.20
2023-03-17T06:55:13.915Z,3.13
2023-03-17T06:57:41.134Z,2.97
2023-03-17T07:00:09.026Z,3.43
2023-03-17T07:02:36.229Z,2.80
2023-03-17T07:05:04.656Z,3.47
2023-03-17T07:07:31.786Z,3.03
2023-03-17T07:09:59.935Z,3.20
2023-03-17T07:12:27.280Z,2.77
2023-03-17T07:14:54.313Z,3.07
2023-03-17T07:17:21.028Z,3.77
2023-03-17T07:19:47.773Z,3.07
2023-03-17T07:22:14.645Z,3.40
2023-03-17T07:24:45.040Z,3.43
2023-03-17T07:27:11.793Z,3.03
2023-03-17T07:29:39.246Z,3.27
2023-03-17T07:32:08.251Z,3.03
2023-03-17T07:34:35.861Z,2.90
2023-03-17T07:37:03.143Z,2.90
2023-03-17T07:39:29.928Z,3.40
2023-03-17T07:41:56.786Z,3.30
2023-03-17T07:44:25.104Z,3.00
2023-03-17T07:46:52.361Z,3.10
2023-03-17T07:49:34.084Z,2.70
2023-03-17T07:52:05.945Z,3.20
2023-03-17T07:54:32.979Z,2.93
2023-03-17T07:57:00.150Z,3.20
2023-03-17T07:59:27.473Z,3.07
2023-03-17T08:01:54.451Z,3.20
2023-03-17T08:04:21.413Z,3.30
2023-03-17T08:06:48.129Z,3.10
2023-03-17T08:09:15.351Z,2.93
2023-03-17T08:11:42.199Z,3.10
2023-03-17T08:14:10.069Z,3.70
2023-03-17T08:16:37.190Z,3.03
2023-03-17T08:19:04.645Z,2.70
2023-03-17T08:21:32.161Z,2.87
2023-03-17T08:23:59.152Z,3.40
2023-03-17T08:26:27.217Z,2.60
2023-03-17T08:28:54.615Z,2.60
2023-03-17T08:31:22.906Z,3.73
2023-03-17T08:33:52.660Z,3.00
2023-03-17T08:36:21.352Z,3.60
2023-03-17T08:38:48.475Z,3.20
2023-03-17T08:41:18.565Z,3.30
2023-03-17T08:43:46.246Z,3.07
2023-03-17T08:46:18.454Z,3.37
2023-03-17T08:48:46.964Z,3.20
2023-03-17T08:51:17.735Z,3.63
2023-03-17T08:53:45.985Z,3.20
2023-03-17T08:56:15.548Z,3.33
2023-03-17T08:58:46.183Z,3.53
2023-03-17T09:01:13.549Z,2.97
2023-03-17T09:03:42.115Z,3.30
2023-03-17T09:06:11.756Z,3.40
2023-03-17T09:08:40.833Z,3.43
2023-03-17T09:11:08.720Z,3.27
2023-03-17T09:13:38.043Z,2.97
2023-03-17T09:16:06.112Z,3.30
2023-03-17T09:18:33.324Z,2.97
2023-03-17T09:21:00.770Z,2.80
2023-03-17T09:23:27.956Z,3.03
2023-03-17T09:25:55.076Z,2.83
2023-03-17T09:28:21.958Z,3.23
2023-03-17T09:30:49.357Z,3.27
2023-03-17T09:33:17.977Z,3.30
2023-03-17T09:35:44.929Z,3.47
2023-03-17T09:38:13.096Z,3.60
2023-03-17T09:40:48.537Z,3.47
2023-03-17T09:43:52.768Z,2.63
2023-03-17T09:46:41.886Z,3.33
2023-03-17T09:49:12.146Z,3.07
2023-03-17T09:51:39.697Z,3.13
2023-03-17T09:54:29.655Z,3.10
2023-03-17T09:57:10.552Z,3.07
2023-03-17T09:59:42.343Z,3.53
2023-03-17T10:02:21.842Z,3.60
2023-03-17T10:04:49.308Z,3.20
2023-03-17T10:07:22.739Z,3.10
2023-03-17T10:10:16.916Z,4.27
2023-03-17T10:12:58.381Z,3.93
2023-03-17T10:15:36.795Z,3.87
2023-03-17T10:18:13.573Z,3.57
2023-03-17T10:20:56.659Z,3.97
2023-03-17T10:23:32.040Z,2.90
2023-03-17T10:26:08.395Z,3.07
2023-03-17T10:28:39.223Z,2.50
2023-03-17T10:31:16.874Z,3.20
2023-03-17T10:33:52.497Z,3.10
2023-03-17T10:36:38.185Z,3.13
2023-03-17T10:39:07.504Z,3.30
2023-03-17T10:41:41.283Z,3.23
2023-03-17T10:44:21.821Z,3.90
2023-03-17T10:46:57.374Z,3.20
2023-03-17T10:49:26.288Z,3.03
2023-03-17T10:51:54.427Z,3.20
2023-03-17T10:54:25.469Z,3.30
2023-03-17T10:57:02.491Z,3.50
2023-03-17T10:59:32.983Z,2.97
2023-03-17T11:02:01.766Z,2.70
2023-03-17T11:04:59.890Z,2.97
2023-03-17T11:07:39.373Z,3.20
2023-03-17T11:10:21.216Z,3.17
2023-03-17T11:12:53.465Z,3.17
2023-03-17T11:15:23.010Z,3.07
2023-03-17T11:18:00.951Z,3.30
2023-03-17T11:20:36.348Z,3.40
2023-03-17T11:23:09.174Z,3.63
2023-03-17T11:25:42.555Z,3.70
2023-03-17T11:28:21.811Z,3.17
2023-03-17T11:31:13.241Z,2.90
2023-03-17T11:33:59.400Z,3.43
2023-03-17T11:37:12.149Z,3.43
2023-03-17T11:39:41.845Z,3.47
2023-03-17T11:42:21.578Z,3.13
2023-03-17T11:45:17.534Z,2.80
2023-03-17T11:47:44.200Z,2.73
2023-03-17T11:50:33.972Z,3.30
2023-03-17T11:53:22.512Z,3.30
2023-03-17T11:55:57.914Z,3.63
2023-03-17T11:58:39.803Z,3.20
2023-03-17T12:01:10.306Z,3.40
2023-03-17T12:03:46.221Z,3.57
2023-03-17T12:06:21.555Z,2.90
2023-03-17T12:08:59.873Z,3.20
2023-03-17T12:11:30.118Z,2.43
2023-03-17T12:14:04.948Z,3.20
2023-03-17T12:17:12.575Z,3.10
2023-03-17T12:20:07.158Z,3.03
2023-03-17T12:22:57.980Z,3.13
2023-03-17T12:25:33.748Z,3.07
2023-03-17T12:28:09.203Z,2.90
2023-03-17T12:30:48.488Z,2.60
2023-03-17T12:33:30.076Z,2.63
2023-03-17T12:35:58.997Z,2.70
2023-03-17T12:38:36.415Z,3.00
2023-03-17T12:41:18.412Z,2.37
2023-03-17T12:43:47.795Z,2.67
2023-03-17T12:46:29.924Z,2.60
2023-03-17T12:49:18.485Z,2.50
2023-03-17T12:51:52.592Z,2.57
2023-03-17T12:54:32.141Z,2.40
2023-03-17T12:57:19.161Z,2.50
2023-03-17T12:59:49.324Z,2.97
2023-03-17T13:02:38.200Z,3.00
2023-03-17T13:05:17.168Z,2.80
2023-03-17T13:07:52.734Z,2.50
2023-03-17T13:10:42.050Z,2.70
2023-03-17T13:13:35.751Z,2.90
2023-03-17T13:16:26.687Z,3.00
2023-03-17T13:19:07.834Z,3.43
2023-03-17T13:21:36.457Z,2.60
2023-03-17T13:24:18.692Z,2.90
2023-03-17T13:27:10.292Z,2.40
2023-03-17T13:29:36.931Z,4.33
2023-03-17T13:32:17.015Z,3.03
2023-03-17T13:34:55.979Z,2.93
2023-03-17T13:37:31.592Z,3.10
2023-03-17T13:40:16.917Z,2.23
2023-03-17T13:42:43.620Z,2.80
2023-03-17T13:45:20.782Z,2.60
2023-03-17T13:47:49.735Z,3.33
2023-03-17T13:50:22.642Z,3.50
2023-03-17T13:52:55.664Z,2.90
2023-03-17T13:55:22.317Z,3.00
2023-03-17T13:58:11.924Z,3.47
2023-03-17T14:00:42.586Z,2.80
2023-03-17T14:03:12.321Z,3.20
2023-03-17T14:05:40.865Z,3.93
2023-03-17T14:08:23.175Z,3.67
2023-03-17T14:10:54.824Z,3.30
2023-03-17T14:14:31.995Z,3.00
2023-03-17T14:17:07.041Z,2.97
2023-03-17T14:19:33.753Z,3.00
2023-03-17T14:22:19.934Z,3.00
2023-03-17T14:24:51.769Z,2.70
2023-03-17T14:27:18.870Z,2.70
2023-03-17T14:29:46.121Z,3.10
2023-03-17T14:32:16.222Z,3.07
2023-03-17T14:34:45.401Z,2.70
2023-03-17T14:37:12.808Z,3.20
2023-03-17T14:39:48.290Z,3.07
2023-03-17T14:42:18.152Z,2.83
2023-03-17T14:44:44.829Z,2.90
2023-03-17T14:47:23.668Z,2.60
2023-03-17T14:49:52.981Z,2.47
2023-03-17T14:52:32.928Z,2.70
2023-03-17T14:55:01.061Z,2.60
2023-03-17T14:57:31.740Z,2.77
2023-03-17T15:00:21.940Z,2.70
2023-03-17T15:02:59.658Z,2.57
2023-03-17T15:05:36.408Z,1.87
2023-03-17T15:08:23.132Z,2.00
2023-03-17T15:10:49.809Z,2.17
2023-03-17T15:13:16.450Z,1.87
2023-03-17T15:15:44.700Z,2.07
2023-03-17T15:18:14.407Z,2.30
2023-03-17T15:20:44.468Z,1.73
2023-03-17T15:23:18.847Z,2.10
2023-03-17T15:25:50.044Z,2.03
2023-03-17T15:28:20.278Z,2.00
2023-03-17T15:30:53.519Z,2.10
2023-03-17T15:33:29.512Z,2.50
2023-03-17T15:35:57.182Z,1.87
2023-03-17T15:38:24.942Z,2.47
2023-03-17T15:40:51.663Z,2.43
2023-03-17T15:43:21.730Z,1.90
2023-03-17T15:45:55.503Z,2.37
2023-03-17T15:48:25.509Z,2.30
2023-03-17T15:50:55.409Z,2.60
2023-03-17T15:53:22.683Z,2.83
2023-03-17T15:55:49.513Z,2.60
2023-03-17T15:58:16.442Z,1.80
2023-03-17T16:00:45.167Z,2.70
2023-03-17T16:03:34.971Z,2.93
2023-03-17T16:06:03.423Z,2.43
2023-03-17T16:08:30.573Z,2.50
2023-03-17T16:10:57.432Z,2.20
2023-03-17T16:13:24.364Z,1.93
2023-03-17T16:15:57.770Z,2.40
2023-03-17T16:18:37.025Z,2.60
2023-03-17T16:21:05.159Z,2.40
2023-03-17T16:23:36.523Z,2.47
2023-03-17T16:26:14.233Z,2.00
2023-03-17T16:28:44.672Z,1.97
2023-03-17T16:31:24.198Z,3.20
2023-03-17T16:33:52.942Z,3.23
2023-03-17T16:36:21.814Z,2.23
2023-03-17T16:38:49.765Z,2.10
2023-03-17T16:41:27.790Z,2.40
2023-03-17T16:44:01.213Z,2.23
2023-03-17T16:46:33.356Z,2.10
2023-03-17T16:49:01.976Z,2.07
2023-03-17T16:51:28.689Z,2.20
2023-03-17T16:53:55.322Z,2.60
2023-03-17T16:56:25.185Z,2.50
2023-03-17T16:58:51.952Z,2.83
2023-03-17T17:01:24.964Z,4.30
2023-03-17T17:03:52.077Z,4.97
2023-03-17T17:06:20.754Z,4.53
2023-03-17T17:08:49.323Z,3.67
2023-03-17T17:11:18.032Z,3.83
2023-03-17T17:13:47.544Z,3.47
2023-03-17T17:16:27.507Z,3.80
2023-03-17T17:18:54.560Z,3.40
2023-03-17T17:21:21.457Z,3.63
2023-03-17T17:23:48.458Z,3.60
2023-03-17T17:26:15.586Z,4.07
2023-03-17T17:28:42.841Z,5.07
2023-03-17T17:31:10.978Z,4.80
2023-03-17T17:33:38.428Z,5.47
2023-03-17T17:36:08.247Z,5.20
2023-03-17T17:38:34.912Z,5.50
2023-03-17T17:41:06.973Z,5.00
2023-03-17T17:43:33.708Z,4.87
2023-03-17T17:46:01.069Z,4.67
2023-03-17T17:48:28.804Z,4.77
2023-03-17T17:50:56.786Z,4.07
2023-03-17T17:53:24.078Z,4.00
2023-03-17T17:55:51.918Z,3.73
2023-03-17T17:58:22.279Z,3.30
2023-03-17T18:00:49.261Z,3.50
2023-03-17T18:03:16.122Z,3.77
2023-03-17T18:05:42.998Z,4.43
2023-03-17T18:08:14.291Z,3.63
2023-03-17T18:10:41.511Z,3.70
2023-03-17T18:13:08.380Z,4.10
2023-03-17T18:15:35.170Z,3.77
2023-03-17T18:18:01.800Z,4.47
2023-03-17T18:20:28.502Z,4.53
2023-03-17T18:22:55.162Z,4.97
2023-03-17T18:25:21.889Z,4.67
2023-03-17T18:27:48.534Z,5.10
2023-03-17T18:30:27.882Z,4.97
2023-03-17T18:33:07.855Z,4.87
2023-03-17T18:35:34.871Z,4.27
2023-03-17T18:38:02.074Z,4.47
2023-03-17T18:40:29.044Z,4.87
2023-03-17T18:42:56.005Z,4.83
2023-03-17T18:45:23.090Z,4.43
2023-03-17T18:47:49.786Z,4.90
2023-03-17T18:50:17.614Z,4.57
2023-03-17T18:52:44.985Z,5.27
2023-03-17T18:55:13.277Z,4.77
2023-03-17T18:57:40.296Z,5.00
2023-03-17T19:00:09.858Z,4.93
2023-03-17T19:02:37.881Z,4.83
2023-03-17T19:05:06.327Z,5.10
2023-03-17T19:07:33.623Z,5.47
2023-03-17T19:10:00.497Z,5.23
2023-03-17T19:12:27.101Z,4.83
2023-03-17T19:14:56.571Z,5.03
2023-03-17T19:17:23.457Z,5.47
2023-03-17T19:19:52.984Z,5.00
2023-03-17T19:22:19.688Z,5.27
2023-03-17T19:24:47.972Z,4.70
2023-03-17T19:27:14.650Z,5.43
2023-03-17T19:29:41.486Z,6.10
2023-03-17T19:32:08.276Z,5.80
2023-03-17T19:34:35.399Z,5.70
2023-03-17T19:37:03.576Z,5.23
2023-03-17T19:39:31.447Z,5.87
2023-03-17T19:41:59.416Z,5.23
2023-03-17T19:44:26.138Z,4.97
2023-03-17T19:46:52.845Z,5.80
2023-03-17T19:49:21.208Z,6.00
2023-03-17T19:51:49.192Z,5.00
2023-03-17T19:54:16.632Z,4.80
2023-03-17T19:56:43.291Z,5.00
2023-03-17T19:59:10.203Z,5.47
2023-03-17T20:01:38.402Z,5.03
2023-03-17T20:04:07.141Z,4.87
2023-03-17T20:06:34.816Z,4.87
2023-03-17T20:09:04.353Z,4.67
2023-03-17T20:11:34.145Z,5.67
2023-03-17T20:14:04.495Z,7.57
2023-03-17T20:16:33.746Z,7.07
2023-03-17T20:19:01.587Z,6.07
2023-03-17T20:21:28.356Z,7.87
2023-03-17T20:23:57.870Z,7.10
2023-03-17T20:26:24.664Z,8.93
2023-03-17T20:28:51.737Z,8.70
2023-03-17T20:31:18.704Z,8.47
2023-03-17T20:33:45.384Z,9.77
2023-03-17T20:36:13.036Z,10.10
2023-03-17T20:38:40.720Z,13.77
2023-03-17T20:41:18.991Z,11.20
2023-03-17T20:43:46.926Z,9.90
2023-03-17T20:46:24.183Z,9.23
2023-03-17T20:49:01.215Z,8.30
2023-03-17T20:51:28.021Z,8.30
2023-03-17T20:53:55.242Z,7.33
2023-03-17T20:56:23.682Z,6.63
2023-03-17T20:58:50.979Z,7.10
2023-03-17T21:01:20.797Z,7.13
2023-03-17T21:03:48.395Z,7.20
2023-03-17T21:06:15.715Z,6.50
2023-03-17T21:08:42.588Z,6.00
2023-03-17T21:11:16.049Z,6.30
2023-03-17T21:13:44.254Z,6.47
2023-03-17T21:16:22.549Z,5.53
2023-03-17T21:18:49.337Z,6.00
2023-03-17T21:21:17.329Z,5.03
2023-03-17T21:23:45.696Z,5.50
2023-03-17T21:26:12.700Z,5.40
2023-03-17T21:28:41.517Z,5.97
2023-03-17T21:31:09.574Z,5.70
2023-03-17T21:33:36.804Z,5.17
2023-03-17T21:36:03.946Z,5.87
2023-03-17T21:38:31.141Z,6.33
2023-03-17T21:40:58.394Z,6.10
2023-03-17T21:43:25.421Z,5.07
2023-03-17T21:45:52.312Z,5.57
2023-03-17T21:48:19.099Z,5.80
2023-03-17T21:50:47.893Z,6.80
2023-03-17T21:53:15.915Z,6.17
2023-03-17T21:55:42.859Z,7.10
2023-03-17T21:58:09.561Z,7.80
2023-03-17T22:00:45.164Z,8.63
2023-03-17T22:03:12.461Z,8.07
2023-03-17T22:05:39.182Z,8.03
2023-03-17T22:08:06.174Z,8.60
2023-03-17T22:10:32.999Z,8.47
2023-03-17T22:12:59.693Z,6.97
2023-03-17T22:15:26.753Z,8.63
2023-03-17T22:17:53.430Z,10.47
2023-03-17T22:20:20.249Z,9.17
2023-03-17T22:22:46.869Z,9.07
2023-03-17T22:25:13.486Z,8.77
2023-03-17T22:27:40.215Z,8.20
2023-03-17T22:30:10.988Z,7.50
2023-03-17T22:32:37.619Z,12.87
2023-03-17T22:35:04.785Z,7.63
2023-03-17T22:37:31.426Z,8.23
2023-03-17T22:40:02.703Z,8.53
2023-03-17T22:42:29.411Z,9.60
2023-03-17T22:44:56.183Z,8.83
2023-03-17T22:47:22.808Z,8.60
2023-03-17T22:49:49.562Z,8.30
2023-03-17T22:52:16.164Z,8.70
2023-03-17T22:54:42.803Z,8.90
2023-03-17T22:57:09.500Z,8.63
2023-03-17T22:59:36.365Z,10.13
2023-03-17T23:02:03.075Z,9.63
2023-03-17T23:04:29.735Z,9.87
2023-03-17T23:06:56.619Z,9.90
2023-03-17T23:09:23.905Z,9.90
2023-03-17T23:11:51.134Z,9.67
2023-03-17T23:14:17.800Z,9.33
2023-03-17T23:16:45.151Z,14.77
2023-03-17T23:19:12.498Z,15.43
2023-03-17T23:21:40.052Z,12.77
2023-03-17T23:24:08.614Z,16.07
2023-03-17T23:26:37.118Z,13.03
2023-03-17T23:29:05.746Z,12.27
2023-03-17T23:31:34.141Z,11.20
2023-03-17T23:34:01.029Z,10.77
2023-03-17T23:36:27.771Z,9.67
2023-03-17T23:38:54.488Z,8.97
2023-03-17T23:41:21.564Z,9.10
2023-03-17T23:43:49.137Z,8.63
2023-03-17T23:46:15.808Z,8.13
2023-03-17T23:48:43.096Z,8.57
2023-03-17T23:51:12.148Z,8.83
2023-03-17T23:53:42.233Z,8.13
2023-03-17T23:56:11.575Z,8.03
2023-03-17T23:58:38.961Z,8.03
